sensor_id;sensor_type;location;lat;lon;timestamp;P1;durP1;ratioP1;P2;durP2;ratioP2
7563;SDS011;3823;53.586;10.040;2023-04-15T05:03:08;27.60;;;16.70;;
7563;SDS011;3823;53.586;10.040;2023-04-15T05:05:34;26.92;;;16.63;;
7563;SDS011;3823;53.586;10.040;2023-04-15T05:08:00;26.95;;;16.45;;
7563;SDS011;3823;53.586;10.040;2023-04-15T05:10:26;27.98;;;16.85;;
7563;SDS011;3823;53.586;10.040;2023-04-15T05:12:52;29.35;;;17.88;;
7563;SDS011;3823;53.586;10.040;2023-04-15T05:15:17;27.33;;;17.48;;
7563;SDS011;3823;53.586;10.040;2023-04-15T05:17:43;27.48;;;16.73;;
7563;SDS011;3823;53.586;10.040;2023-04-15T05:20:08;28.02;;;18.33;;
7563;SDS011;3823;53.586;10.040;2023-04-15T05:22:35;33.28;;;19.95;;
7563;SDS011;3823;53.586;10.040;2023-04-15T05:25:01;36.47;;;21.83;;
7563;SDS011;3823;53.586;10.040;2023-04-15T05:27:27;33.45;;;20.05;;
7563;SDS011;3823;53.586;10.040;2023-04-15T05:29:52;35.05;;;18.85;;
7563;SDS011;3823;53.586;10.040;2023-04-15T05:32:18;32.05;;;20.02;;
7563;SDS011;3823;53.586;10.040;2023-04-15T05:34:44;37.70;;;21.42;;
7563;SDS011;3823;53.586;10.040;2023-04-15T05:37:09;34.45;;;19.60;;
7563;SDS011;3823;53.586;10.040;2023-04-15T05:39:35;32.60;;;20.25;;
7563;SDS011;3823;53.586;10.040;2023-04-15T05:42:01;34.28;;;20.13;;
7563;SDS011;3823;53.586;10.040;2023-04-15T05:44:26;31.70;;;20.35;;
7563;SDS011;3823;53.586;10.040;2023-04-15T05:46:52;35.78;;;21.88;;
7563;SDS011;3823;53.586;10.040;2023-04-15T05:49:17;38.80;;;21.85;;
7563;SDS011;3823;53.586;10.040;2023-04-15T05:51:43;35.30;;;20.50;;
7563;SDS011;3823;53.586;10.040;2023-04-15T05:54:08;32.33;;;20.00;;
7563;SDS011;3823;53.586;10.040;2023-04-15T05:56:34;34.42;;;21.35;;
7563;SDS011;3823;53.586;10.040;2023-04-15T05:59:00;34.00;;;21.05;;
7563;SDS011;3823;53.586;10.040;2023-04-15T06:01:26;36.33;;;21.23;;
7563;SDS011;3823;53.586;10.040;2023-04-15T06:03:52;33.85;;;19.85;;
7563;SDS011;3823;53.586;10.040;2023-04-15T06:06:17;31.10;;;18.30;;
7563;SDS011;3823;53.586;10.040;2023-04-15T06:08:43;35.55;;;21.70;;
7563;SDS011;3823;53.586;10.040;2023-04-15T06:11:08;28.27;;;18.25;;
7563;SDS011;3823;53.586;10.040;2023-04-15T06:13:34;33.25;;;19.73;;
7563;SDS011;3823;53.586;10.040;2023-04-15T06:15:59;30.08;;;19.73;;
7563;SDS011;3823;53.586;10.040;2023-04-15T06:18:25;34.88;;;20.02;;
7563;SDS011;3823;53.586;10.040;2023-04-15T06:20:51;34.47;;;21.20;;
7563;SDS011;3823;53.586;10.040;2023-04-15T06:23:16;37.90;;;20.02;;
7563;SDS011;3823;53.586;10.040;2023-04-15T06:25:42;38.22;;;22.42;;
7563;SDS011;3823;53.586;10.040;2023-04-15T06:28:07;36.72;;;22.42;;
7563;SDS011;3823;53.586;10.040;2023-04-15T06:30:33;39.70;;;21.77;;
7563;SDS011;3823;53.586;10.040;2023-04-15T06:33:00;36.03;;;22.45;;
7563;SDS011;3823;53.586;10.040;2023-04-15T06:35:27;33.67;;;21.05;;
7563;SDS011;3823;53.586;10.040;2023-04-15T06:37:52;38.80;;;21.48;;
7563;SDS011;3823;53.586;10.040;2023-04-15T06:40:18;39.10;;;23.10;;
7563;SDS011;3823;53.586;10.040;2023-04-15T06:42:44;39.03;;;24.30;;
7563;SDS011;3823;53.586;10.040;2023-04-15T06:45:10;35.85;;;22.98;;
7563;SDS011;3823;53.586;10.040;2023-04-15T06:47:35;39.67;;;23.05;;
7563;SDS011;3823;53.586;10.040;2023-04-15T06:50:01;41.63;;;23.67;;
7563;SDS011;3823;53.586;10.040;2023-04-15T06:52:27;42.85;;;24.25;;
7563;SDS011;3823;53.586;10.040;2023-04-15T06:54:53;36.78;;;22.73;;
7563;SDS011;3823;53.586;10.040;2023-04-15T06:57:19;40.17;;;25.33;;
7563;SDS011;3823;53.586;10.040;2023-04-15T06:59:45;45.10;;;25.45;;
7563;SDS011;3823;53.586;10.040;2023-04-15T07:02:11;37.33;;;24.80;;
7563;SDS011;3823;53.586;10.040;2023-04-15T07:04:38;41.20;;;24.92;;
7563;SDS011;3823;53.586;10.040;2023-04-15T07:07:04;45.05;;;27.90;;
7563;SDS011;3823;53.586;10.040;2023-04-15T07:09:30;41.08;;;24.95;;
7563;SDS011;3823;53.586;10.040;2023-04-15T07:11:56;40.58;;;26.67;;
7563;SDS011;3823;53.586;10.040;2023-04-15T07:14:22;42.17;;;25.80;;
7563;SDS011;3823;53.586;10.040;2023-04-15T07:16:47;48.20;;;26.95;;
7563;SDS011;3823;53.586;10.040;2023-04-15T07:19:13;43.75;;;27.42;;
7563;SDS011;3823;53.586;10.040;2023-04-15T07:21:38;52.83;;;28.25;;
7563;SDS011;3823;53.586;10.040;2023-04-15T07:24:04;49.05;;;27.58;;
7563;SDS011;3823;53.586;10.040;2023-04-15T07:26:30;50.22;;;26.63;;
7563;SDS011;3823;53.586;10.040;2023-04-15T07:28:56;44.45;;;26.25;;
7563;SDS011;3823;53.586;10.040;2023-04-15T07:31:21;48.70;;;25.70;;
7563;SDS011;3823;53.586;10.040;2023-04-15T07:33:47;47.55;;;26.88;;
7563;SDS011;3823;53.586;10.040;2023-04-15T07:36:12;42.03;;;26.20;;
7563;SDS011;3823;53.586;10.040;2023-04-15T07:38:39;46.58;;;27.13;;
7563;SDS011;3823;53.586;10.040;2023-04-15T07:41:06;44.05;;;27.35;;
7563;SDS011;3823;53.586;10.040;2023-04-15T07:43:32;55.30;;;29.95;;
7563;SDS011;3823;53.586;10.040;2023-04-15T07:45:57;43.72;;;27.45;;
7563;SDS011;3823;53.586;10.040;2023-04-15T07:48:24;45.42;;;25.60;;
7563;SDS011;3823;53.586;10.040;2023-04-15T07:50:49;42.38;;;26.92;;
7563;SDS011;3823;53.586;10.040;2023-04-15T07:53:15;45.30;;;26.70;;
7563;SDS011;3823;53.586;10.040;2023-04-15T07:55:40;43.80;;;27.02;;
7563;SDS011;3823;53.586;10.040;2023-04-15T07:58:06;45.90;;;28.33;;
7563;SDS011;3823;53.586;10.040;2023-04-15T08:00:31;48.90;;;27.55;;
7563;SDS011;3823;53.586;10.040;2023-04-15T08:02:57;50.20;;;27.90;;
7563;SDS011;3823;53.586;10.040;2023-04-15T08:05:23;51.80;;;30.35;;
7563;SDS011;3823;53.586;10.040;2023-04-15T08:07:49;46.60;;;28.00;;
7563;SDS011;3823;53.586;10.040;2023-04-15T08:10:15;47.38;;;28.33;;
7563;SDS011;3823;53.586;10.040;2023-04-15T08:12:41;58.13;;;30.35;;
7563;SDS011;3823;53.586;10.040;2023-04-15T08:15:07;47.08;;;26.65;;
7563;SDS011;3823;53.586;10.040;2023-04-15T08:17:33;51.78;;;28.98;;
7563;SDS011;3823;53.586;10.040;2023-04-15T08:19:58;48.08;;;29.08;;
7563;SDS011;3823;53.586;10.040;2023-04-15T08:22:24;49.88;;;28.38;;
7563;SDS011;3823;53.586;10.040;2023-04-15T08:24:51;46.40;;;28.10;;
7563;SDS011;3823;53.586;10.040;2023-04-15T08:27:17;49.92;;;29.02;;
7563;SDS011;3823;53.586;10.040;2023-04-15T08:29:43;48.10;;;28.20;;
7563;SDS011;3823;53.586;10.040;2023-04-15T08:32:09;48.03;;;27.65;;
7563;SDS011;3823;53.586;10.040;2023-04-15T08:34:35;47.30;;;29.17;;
7563;SDS011;3823;53.586;10.040;2023-04-15T08:37:00;47.15;;;28.92;;
7563;SDS011;3823;53.586;10.040;2023-04-15T08:39:26;55.20;;;32.45;;
7563;SDS011;3823;53.586;10.040;2023-04-15T08:44:24;43.80;;;29.13;;
7563;SDS011;3823;53.586;10.040;2023-04-15T08:46:53;48.70;;;28.98;;
7563;SDS011;3823;53.586;10.040;2023-04-15T08:49:21;50.05;;;29.20;;
7563;SDS011;3823;53.586;10.040;2023-04-15T08:51:50;42.30;;;25.40;;
7563;SDS011;3823;53.586;10.040;2023-04-15T08:54:17;50.65;;;28.88;;
7563;SDS011;3823;53.586;10.040;2023-04-15T08:56:43;49.40;;;29.02;;
7563;SDS011;3823;53.586;10.040;2023-04-15T08:59:09;42.67;;;26.70;;
7563;SDS011;3823;53.586;10.040;2023-04-15T09:01:36;41.97;;;26.35;;
7563;SDS011;3823;53.586;10.040;2023-04-15T09:04:02;52.00;;;28.13;;
7563;SDS011;3823;53.586;10.040;2023-04-15T09:06:30;49.85;;;26.70;;
7563;SDS011;3823;53.586;10.040;2023-04-15T09:08:56;46.05;;;27.50;;
7563;SDS011;3823;53.586;10.040;2023-04-15T09:11:21;44.88;;;27.95;;
7563;SDS011;3823;53.586;10.040;2023-04-15T09:13:47;52.15;;;30.88;;
7563;SDS011;3823;53.586;10.040;2023-04-15T09:16:13;47.85;;;27.50;;
7563;SDS011;3823;53.586;10.040;2023-04-15T09:18:39;46.85;;;28.65;;
7563;SDS011;3823;53.586;10.040;2023-04-15T09:23:33;46.70;;;29.33;;
7563;SDS011;3823;53.586;10.040;2023-04-15T09:26:00;51.97;;;30.10;;
7563;SDS011;3823;53.586;10.040;2023-04-15T09:28:27;48.22;;;27.35;;
7563;SDS011;3823;53.586;10.040;2023-04-15T09:30:56;52.97;;;30.35;;
7563;SDS011;3823;53.586;10.040;2023-04-15T09:33:22;49.30;;;27.90;;
7563;SDS011;3823;53.586;10.040;2023-04-15T09:35:55;52.70;;;29.48;;
7563;SDS011;3823;53.586;10.040;2023-04-15T09:38:21;49.35;;;27.55;;
7563;SDS011;3823;53.586;10.040;2023-04-15T09:40:47;46.58;;;27.90;;
7563;SDS011;3823;53.586;10.040;2023-04-15T09:43:13;47.92;;;29.17;;
7563;SDS011;3823;53.586;10.040;2023-04-15T09:45:45;50.45;;;27.17;;
7563;SDS011;3823;53.586;10.040;2023-04-15T09:48:14;46.60;;;28.42;;
7563;SDS011;3823;53.586;10.040;2023-04-15T09:50:47;40.35;;;26.02;;
7563;SDS011;3823;53.586;10.040;2023-04-15T09:53:17;50.03;;;27.58;;
7563;SDS011;3823;53.586;10.040;2023-04-15T09:55:48;43.30;;;26.85;;
7563;SDS011;3823;53.586;10.040;2023-04-15T09:58:25;42.42;;;27.73;;
7563;SDS011;3823;53.586;10.040;2023-04-15T10:00:52;52.08;;;32.10;;
7563;SDS011;3823;53.586;10.040;2023-04-15T10:03:20;46.00;;;27.42;;
7563;SDS011;3823;53.586;10.040;2023-04-15T10:05:47;43.90;;;26.20;;
7563;SDS011;3823;53.586;10.040;2023-04-15T10:08:14;48.67;;;26.85;;
7563;SDS011;3823;53.586;10.040;2023-04-15T10:10:45;40.55;;;26.48;;
7563;SDS011;3823;53.586;10.040;2023-04-15T10:13:12;36.13;;;24.02;;
7563;SDS011;3823;53.586;10.040;2023-04-15T10:15:41;37.35;;;24.60;;
7563;SDS011;3823;53.586;10.040;2023-04-15T10:18:09;43.78;;;26.33;;
7563;SDS011;3823;53.586;10.040;2023-04-15T10:20:37;42.95;;;25.17;;
7563;SDS011;3823;53.586;10.040;2023-04-15T10:23:03;35.92;;;25.02;;
7563;SDS011;3823;53.586;10.040;2023-04-15T10:25:29;35.15;;;23.88;;
7563;SDS011;3823;53.586;10.040;2023-04-15T10:27:57;35.58;;;23.48;;
7563;SDS011;3823;53.586;10.040;2023-04-15T10:30:24;34.63;;;21.02;;
7563;SDS011;3823;53.586;10.040;2023-04-15T10:32:50;31.92;;;22.13;;
7563;SDS011;3823;53.586;10.040;2023-04-15T10:35:17;32.25;;;20.75;;
7563;SDS011;3823;53.586;10.040;2023-04-15T10:37:45;24.05;;;19.25;;
7563;SDS011;3823;53.586;10.040;2023-04-15T10:42:59;28.88;;;18.80;;
7563;SDS011;3823;53.586;10.040;2023-04-15T10:45:35;26.98;;;18.40;;
7563;SDS011;3823;53.586;10.040;2023-04-15T10:48:02;24.70;;;18.98;;
7563;SDS011;3823;53.586;10.040;2023-04-15T10:50:30;26.10;;;16.83;;
7563;SDS011;3823;53.586;10.040;2023-04-15T10:52:56;23.95;;;18.40;;
7563;SDS011;3823;53.586;10.040;2023-04-15T10:55:24;22.92;;;16.73;;
7563;SDS011;3823;53.586;10.040;2023-04-15T10:57:55;22.13;;;15.82;;
7563;SDS011;3823;53.586;10.040;2023-04-15T11:00:25;22.75;;;16.25;;
7563;SDS011;3823;53.586;10.040;2023-04-15T11:02:58;22.23;;;15.63;;
7563;SDS011;3823;53.586;10.040;2023-04-15T11:08:05;17.77;;;15.25;;
7563;SDS011;3823;53.586;10.040;2023-04-15T11:13:01;15.00;;;13.32;;
7563;SDS011;3823;53.586;10.040;2023-04-15T11:15:29;18.92;;;13.75;;
7563;SDS011;3823;53.586;10.040;2023-04-15T11:18:07;16.15;;;12.60;;
7563;SDS011;3823;53.586;10.040;2023-04-15T11:20:33;15.32;;;11.77;;
7563;SDS011;3823;53.586;10.040;2023-04-15T11:22:59;17.65;;;13.82;;
7563;SDS011;3823;53.586;10.040;2023-04-15T11:25:25;16.00;;;12.40;;
7563;SDS011;3823;53.586;10.040;2023-04-15T11:27:55;17.38;;;12.43;;
7563;SDS011;3823;53.586;10.040;2023-04-15T11:30:22;17.35;;;13.48;;
7563;SDS011;3823;53.586;10.040;2023-04-15T11:32:49;15.60;;;12.80;;
7563;SDS011;3823;53.586;10.040;2023-04-15T11:35:16;15.18;;;12.07;;
7563;SDS011;3823;53.586;10.040;2023-04-15T11:37:43;15.95;;;13.45;;
7563;SDS011;3823;53.586;10.040;2023-04-15T11:40:13;17.67;;;14.70;;
7563;SDS011;3823;53.586;10.040;2023-04-15T11:42:41;20.45;;;15.27;;
7563;SDS011;3823;53.586;10.040;2023-04-15T11:47:36;19.10;;;13.93;;
7563;SDS011;3823;53.586;10.040;2023-04-15T11:52:51;19.67;;;14.07;;
7563;SDS011;3823;53.586;10.040;2023-04-15T11:55:18;18.83;;;13.80;;
7563;SDS011;3823;53.586;10.040;2023-04-15T11:57:43;14.38;;;12.85;;
7563;SDS011;3823;53.586;10.040;2023-04-15T12:00:09;13.38;;;11.93;;
7563;SDS011;3823;53.586;10.040;2023-04-15T12:02:35;15.43;;;12.77;;
7563;SDS011;3823;53.586;10.040;2023-04-15T12:05:07;14.40;;;12.57;;
7563;SDS011;3823;53.586;10.040;2023-04-15T12:07:56;15.32;;;13.02;;
7563;SDS011;3823;53.586;10.040;2023-04-15T12:10:23;15.00;;;12.45;;
7563;SDS011;3823;53.586;10.040;2023-04-15T12:12:50;15.18;;;12.02;;
7563;SDS011;3823;53.586;10.040;2023-04-15T12:15:17;16.23;;;14.18;;
7563;SDS011;3823;53.586;10.040;2023-04-15T12:17:46;15.15;;;12.23;;
7563;SDS011;3823;53.586;10.040;2023-04-15T12:20:12;17.60;;;12.65;;
7563;SDS011;3823;53.586;10.040;2023-04-15T12:22:38;15.02;;;13.15;;
7563;SDS011;3823;53.586;10.040;2023-04-15T12:25:03;15.60;;;12.65;;
7563;SDS011;3823;53.586;10.040;2023-04-15T12:27:30;13.10;;;11.75;;
7563;SDS011;3823;53.586;10.040;2023-04-15T12:30:05;16.75;;;13.45;;
7563;SDS011;3823;53.586;10.040;2023-04-15T12:32:33;13.65;;;12.02;;
7563;SDS011;3823;53.586;10.040;2023-04-15T12:34:59;14.38;;;12.65;;
7563;SDS011;3823;53.586;10.040;2023-04-15T12:37:25;16.27;;;13.27;;
7563;SDS011;3823;53.586;10.040;2023-04-15T12:39:51;15.38;;;13.77;;
7563;SDS011;3823;53.586;10.040;2023-04-15T12:42:18;13.85;;;12.43;;
7563;SDS011;3823;53.586;10.040;2023-04-15T12:44:44;14.30;;;12.52;;
7563;SDS011;3823;53.586;10.040;2023-04-15T12:47:10;13.55;;;11.48;;
7563;SDS011;3823;53.586;10.040;2023-04-15T12:49:36;14.80;;;12.35;;
7563;SDS011;3823;53.586;10.040;2023-04-15T12:52:02;19.38;;;13.25;;
7563;SDS011;3823;53.586;10.040;2023-04-15T12:54:28;14.85;;;12.90;;
7563;SDS011;3823;53.586;10.040;2023-04-15T12:56:55;15.57;;;13.65;;
7563;SDS011;3823;53.586;10.040;2023-04-15T12:59:42;16.05;;;14.13;;
7563;SDS011;3823;53.586;10.040;2023-04-15T13:02:13;14.65;;;12.68;;
7563;SDS011;3823;53.586;10.040;2023-04-15T13:04:49;16.50;;;12.48;;
7563;SDS011;3823;53.586;10.040;2023-04-15T13:07:14;17.45;;;12.90;;
7563;SDS011;3823;53.586;10.040;2023-04-15T13:09:40;17.50;;;13.20;;
7563;SDS011;3823;53.586;10.040;2023-04-15T13:12:06;16.38;;;13.27;;
7563;SDS011;3823;53.586;10.040;2023-04-15T13:14:31;16.08;;;11.82;;
7563;SDS011;3823;53.586;10.040;2023-04-15T13:16:57;16.30;;;12.95;;
7563;SDS011;3823;53.586;10.040;2023-04-15T13:19:23;16.80;;;12.30;;
7563;SDS011;3823;53.586;10.040;2023-04-15T13:21:49;13.48;;;11.90;;
7563;SDS011;3823;53.586;10.040;2023-04-15T13:24:14;14.00;;;11.55;;
7563;SDS011;3823;53.586;10.040;2023-04-15T13:26:40;15.20;;;11.15;;
7563;SDS011;3823;53.586;10.040;2023-04-15T13:29:05;13.85;;;11.65;;
7563;SDS011;3823;53.586;10.040;2023-04-15T13:31:31;13.07;;;11.18;;
7563;SDS011;3823;53.586;10.040;2023-04-15T13:33:56;11.27;;;10.18;;
7563;SDS011;3823;53.586;10.040;2023-04-15T13:36:22;12.00;;;10.60;;
7563;SDS011;3823;53.586;10.040;2023-04-15T13:38:48;15.77;;;13.10;;
7563;SDS011;3823;53.586;10.040;2023-04-15T13:41:13;12.63;;;11.27;;
7563;SDS011;3823;53.586;10.040;2023-04-15T13:43:39;15.10;;;11.88;;
7563;SDS011;3823;53.586;10.040;2023-04-15T13:46:05;15.40;;;13.02;;
7563;SDS011;3823;53.586;10.040;2023-04-15T13:48:31;12.63;;;11.32;;
7563;SDS011;3823;53.586;10.040;2023-04-15T13:50:56;13.18;;;10.60;;
7563;SDS011;3823;53.586;10.040;2023-04-15T13:53:22;11.48;;;9.18;;
7563;SDS011;3823;53.586;10.040;2023-04-15T13:55:47;11.38;;;8.30;;
7563;SDS011;3823;53.586;10.040;2023-04-15T13:58:13;11.68;;;8.82;;
7563;SDS011;3823;53.586;10.040;2023-04-15T14:00:38;12.63;;;8.43;;
7563;SDS011;3823;53.586;10.040;2023-04-15T14:03:04;22.75;;;14.50;;
7563;SDS011;3823;53.586;10.040;2023-04-15T14:05:30;15.52;;;9.75;;
7563;SDS011;3823;53.586;10.040;2023-04-15T14:07:56;9.63;;;8.43;;
7563;SDS011;3823;53.586;10.040;2023-04-15T14:10:23;9.07;;;8.13;;
7563;SDS011;3823;53.586;10.040;2023-04-15T14:12:49;10.55;;;9.52;;
7563;SDS011;3823;53.586;10.040;2023-04-15T14:15:15;11.02;;;9.93;;
7563;SDS011;3823;53.586;10.040;2023-04-15T14:17:40;11.18;;;9.63;;
7563;SDS011;3823;53.586;10.040;2023-04-15T14:20:06;10.98;;;9.88;;
7563;SDS011;3823;53.586;10.040;2023-04-15T14:22:32;12.50;;;10.45;;
7563;SDS011;3823;53.586;10.040;2023-04-15T14:24:58;11.75;;;10.15;;
7563;SDS011;3823;53.586;10.040;2023-04-15T14:27:25;15.82;;;10.18;;
7563;SDS011;3823;53.586;10.040;2023-04-15T14:29:51;12.70;;;10.70;;
7563;SDS011;3823;53.586;10.040;2023-04-15T14:32:18;13.23;;;10.98;;
7563;SDS011;3823;53.586;10.040;2023-04-15T14:34:43;11.35;;;10.13;;
7563;SDS011;3823;53.586;10.040;2023-04-15T14:37:09;10.85;;;8.90;;
7563;SDS011;3823;53.586;10.040;2023-04-15T14:39:34;13.75;;;10.07;;
7563;SDS011;3823;53.586;10.040;2023-04-15T14:42:00;10.88;;;9.88;;
7563;SDS011;3823;53.586;10.040;2023-04-15T14:44:26;9.50;;;8.57;;
7563;SDS011;3823;53.586;10.040;2023-04-15T14:46:51;13.63;;;10.32;;
7563;SDS011;3823;53.586;10.040;2023-04-15T14:49:18;9.55;;;8.65;;
7563;SDS011;3823;53.586;10.040;2023-04-15T14:51:44;10.73;;;9.63;;
7563;SDS011;3823;53.586;10.040;2023-04-15T14:54:10;9.75;;;8.77;;
7563;SDS011;3823;53.586;10.040;2023-04-15T14:56:35;10.45;;;8.70;;
7563;SDS011;3823;53.586;10.040;2023-04-15T14:59:01;9.73;;;8.73;;
7563;SDS011;3823;53.586;10.040;2023-04-15T15:01:27;9.38;;;8.60;;
7563;SDS011;3823;53.586;10.040;2023-04-15T15:03:53;9.27;;;8.38;;
7563;SDS011;3823;53.586;10.040;2023-04-15T15:06:19;11.48;;;9.15;;
7563;SDS011;3823;53.586;10.040;2023-04-15T15:08:48;9.38;;;8.48;;
7563;SDS011;3823;53.586;10.040;2023-04-15T15:11:14;11.77;;;9.70;;
7563;SDS011;3823;53.586;10.040;2023-04-15T15:13:40;9.82;;;8.90;;
7563;SDS011;3823;53.586;10.040;2023-04-15T15:16:05;12.05;;;9.50;;
7563;SDS011;3823;53.586;10.040;2023-04-15T15:18:31;9.75;;;8.52;;
7563;SDS011;3823;53.586;10.040;2023-04-15T15:20:56;11.77;;;10.15;;
7563;SDS011;3823;53.586;10.040;2023-04-15T15:23:22;14.82;;;11.10;;
7563;SDS011;3823;53.586;10.040;2023-04-15T15:25:47;9.65;;;8.60;;
7563;SDS011;3823;53.586;10.040;2023-04-15T15:28:13;12.57;;;11.25;;
7563;SDS011;3823;53.586;10.040;2023-04-15T15:30:39;14.88;;;10.57;;
7563;SDS011;3823;53.586;10.040;2023-04-15T15:33:04;12.93;;;10.40;;
7563;SDS011;3823;53.586;10.040;2023-04-15T15:35:30;14.02;;;11.82;;
7563;SDS011;3823;53.586;10.040;2023-04-15T15:37:56;13.98;;;10.77;;
7563;SDS011;3823;53.586;10.040;2023-04-15T15:40:24;16.35;;;11.05;;
7563;SDS011;3823;53.586;10.040;2023-04-15T15:42:50;14.43;;;11.10;;
7563;SDS011;3823;53.586;10.040;2023-04-15T15:45:16;10.95;;;9.73;;
7563;SDS011;3823;53.586;10.040;2023-04-15T15:47:42;11.07;;;10.07;;
7563;SDS011;3823;53.586;10.040;2023-04-15T15:50:07;11.18;;;10.05;;
7563;SDS011;3823;53.586;10.040;2023-04-15T15:52:33;12.23;;;10.95;;
7563;SDS011;3823;53.586;10.040;2023-04-15T15:54:58;14.65;;;11.95;;
7563;SDS011;3823;53.586;10.040;2023-04-15T15:57:24;14.85;;;11.45;;
7563;SDS011;3823;53.586;10.040;2023-04-15T15:59:50;14.35;;;11.85;;
7563;SDS011;3823;53.586;10.040;2023-04-15T16:02:15;12.27;;;11.05;;
7563;SDS011;3823;53.586;10.040;2023-04-15T16:04:41;16.65;;;11.77;;
7563;SDS011;3823;53.586;10.040;2023-04-15T16:07:07;13.25;;;10.32;;
7563;SDS011;3823;53.586;10.040;2023-04-15T16:09:34;13.15;;;10.98;;
7563;SDS011;3823;53.586;10.040;2023-04-15T16:11:59;15.77;;;12.02;;
7563;SDS011;3823;53.586;10.040;2023-04-15T16:14:25;14.55;;;11.40;;
7563;SDS011;3823;53.586;10.040;2023-04-15T16:16:51;15.02;;;11.85;;
7563;SDS011;3823;53.586;10.040;2023-04-15T16:19:17;14.15;;;12.65;;
7563;SDS011;3823;53.586;10.040;2023-04-15T16:21:44;15.73;;;13.05;;
7563;SDS011;3823;53.586;10.040;2023-04-15T16:24:09;14.85;;;13.35;;
7563;SDS011;3823;53.586;10.040;2023-04-15T16:26:35;14.75;;;13.13;;
7563;SDS011;3823;53.586;10.040;2023-04-15T16:29:01;18.48;;;13.25;;
7563;SDS011;3823;53.586;10.040;2023-04-15T16:31:27;18.15;;;13.93;;
7563;SDS011;3823;53.586;10.040;2023-04-15T16:33:52;17.10;;;13.65;;
7563;SDS011;3823;53.586;10.040;2023-04-15T16:36:18;19.90;;;15.30;;
7563;SDS011;3823;53.586;10.040;2023-04-15T16:38:43;17.48;;;13.55;;
7563;SDS011;3823;53.586;10.040;2023-04-15T16:41:12;15.25;;;13.35;;
7563;SDS011;3823;53.586;10.040;2023-04-15T16:43:38;26.83;;;20.00;;
7563;SDS011;3823;53.586;10.040;2023-04-15T16:46:04;16.42;;;13.93;;
7563;SDS011;3823;53.586;10.040;2023-04-15T16:48:29;17.27;;;13.65;;
7563;SDS011;3823;53.586;10.040;2023-04-15T16:50:55;16.67;;;14.15;;
7563;SDS011;3823;53.586;10.040;2023-04-15T16:53:21;17.85;;;13.85;;
7563;SDS011;3823;53.586;10.040;2023-04-15T16:55:47;16.52;;;13.63;;
7563;SDS011;3823;53.586;10.040;2023-04-15T16:58:12;19.25;;;14.70;;
7563;SDS011;3823;53.586;10.040;2023-04-15T17:00:38;29.83;;;16.27;;
7563;SDS011;3823;53.586;10.040;2023-04-15T17:03:04;20.00;;;15.57;;
7563;SDS011;3823;53.586;10.040;2023-04-15T17:05:29;20.33;;;15.80;;
7563;SDS011;3823;53.586;10.040;2023-04-15T17:07:55;19.50;;;15.82;;
7563;SDS011;3823;53.586;10.040;2023-04-15T17:10:21;18.10;;;15.43;;
7563;SDS011;3823;53.586;10.040;2023-04-15T17:12:47;19.05;;;16.50;;
7563;SDS011;3823;53.586;10.040;2023-04-15T17:15:13;18.45;;;15.50;;
7563;SDS011;3823;53.586;10.040;2023-04-15T17:17:39;17.25;;;15.00;;
7563;SDS011;3823;53.586;10.040;2023-04-15T17:20:04;22.02;;;17.10;;
7563;SDS011;3823;53.586;10.040;2023-04-15T17:22:30;20.75;;;16.23;;
7563;SDS011;3823;53.586;10.040;2023-04-15T17:24:57;20.60;;;17.27;;
7563;SDS011;3823;53.586;10.040;2023-04-15T17:27:22;16.60;;;14.45;;
7563;SDS011;3823;53.586;10.040;2023-04-15T17:29:50;20.20;;;16.95;;
7563;SDS011;3823;53.586;10.040;2023-04-15T17:32:15;21.05;;;16.60;;
7563;SDS011;3823;53.586;10.040;2023-04-15T17:34:41;22.40;;;15.48;;
7563;SDS011;3823;53.586;10.040;2023-04-15T17:37:07;21.50;;;16.17;;
7563;SDS011;3823;53.586;10.040;2023-04-15T17:39:32;22.90;;;17.20;;
7563;SDS011;3823;53.586;10.040;2023-04-15T17:41:58;22.50;;;16.88;;
7563;SDS011;3823;53.586;10.040;2023-04-15T17:44:23;20.55;;;16.88;;
7563;SDS011;3823;53.586;10.040;2023-04-15T17:46:49;23.50;;;17.42;;
7563;SDS011;3823;53.586;10.040;2023-04-15T17:49:14;26.73;;;18.40;;
7563;SDS011;3823;53.586;10.040;2023-04-15T17:51:40;27.38;;;19.35;;
7563;SDS011;3823;53.586;10.040;2023-04-15T17:54:06;22.45;;;17.58;;
7563;SDS011;3823;53.586;10.040;2023-04-15T17:56:32;23.92;;;18.13;;
7563;SDS011;3823;53.586;10.040;2023-04-15T17:58:58;21.77;;;17.70;;
7563;SDS011;3823;53.586;10.040;2023-04-15T18:01:24;20.65;;;16.80;;
7563;SDS011;3823;53.586;10.040;2023-04-15T18:03:50;22.23;;;18.50;;
7563;SDS011;3823;53.586;10.040;2023-04-15T18:06:15;25.77;;;18.30;;
7563;SDS011;3823;53.586;10.040;2023-04-15T18:08:41;24.58;;;19.13;;
7563;SDS011;3823;53.586;10.040;2023-04-15T18:11:07;23.33;;;17.92;;
7563;SDS011;3823;53.586;10.040;2023-04-15T18:13:32;30.52;;;18.98;;
7563;SDS011;3823;53.586;10.040;2023-04-15T18:15:58;26.70;;;19.95;;
7563;SDS011;3823;53.586;10.040;2023-04-15T18:18:23;24.17;;;18.55;;
7563;SDS011;3823;53.586;10.040;2023-04-15T18:20:49;27.63;;;19.52;;
7563;SDS011;3823;53.586;10.040;2023-04-15T18:23:15;28.88;;;17.98;;
7563;SDS011;3823;53.586;10.040;2023-04-15T18:25:40;25.33;;;18.75;;
7563;SDS011;3823;53.586;10.040;2023-04-15T18:28:08;24.23;;;18.45;;
7563;SDS011;3823;53.586;10.040;2023-04-15T18:30:34;25.35;;;19.17;;
7563;SDS011;3823;53.586;10.040;2023-04-15T18:32:59;24.38;;;19.00;;
7563;SDS011;3823;53.586;10.040;2023-04-15T18:35:25;28.00;;;20.40;;
7563;SDS011;3823;53.586;10.040;2023-04-15T18:37:53;24.73;;;19.38;;
7563;SDS011;3823;53.586;10.040;2023-04-15T18:40:20;31.50;;;18.38;;
7563;SDS011;3823;53.586;10.040;2023-04-15T18:42:46;28.23;;;19.55;;
7563;SDS011;3823;53.586;10.040;2023-04-15T18:45:11;25.90;;;17.90;;
7563;SDS011;3823;53.586;10.040;2023-04-15T18:47:37;26.92;;;18.00;;
7563;SDS011;3823;53.586;10.040;2023-04-15T18:50:03;24.92;;;18.45;;
7563;SDS011;3823;53.586;10.040;2023-04-15T18:52:28;22.15;;;18.50;;
7563;SDS011;3823;53.586;10.040;2023-04-15T18:54:55;24.15;;;18.67;;
7563;SDS011;3823;53.586;10.040;2023-04-15T18:57:20;25.85;;;18.55;;
7563;SDS011;3823;53.586;10.040;2023-04-15T18:59:46;24.33;;;17.30;;
7563;SDS011;3823;53.586;10.040;2023-04-15T19:02:11;28.85;;;19.33;;
7563;SDS011;3823;53.586;10.040;2023-04-15T19:04:37;25.90;;;18.75;;
7563;SDS011;3823;53.586;10.040;2023-04-15T19:07:02;24.85;;;17.30;;
7563;SDS011;3823;53.586;10.040;2023-04-15T19:09:28;25.95;;;17.23;;
7563;SDS011;3823;53.586;10.040;2023-04-15T19:11:54;29.45;;;18.83;;
7563;SDS011;3823;53.586;10.040;2023-04-15T19:14:20;30.27;;;21.55;;
7563;SDS011;3823;53.586;10.040;2023-04-15T19:16:46;28.67;;;19.60;;
7563;SDS011;3823;53.586;10.040;2023-04-15T19:19:11;41.45;;;17.95;;
7563;SDS011;3823;53.586;10.040;2023-04-15T19:21:38;25.77;;;19.83;;
7563;SDS011;3823;53.586;10.040;2023-04-15T19:24:04;25.83;;;18.30;;
7563;SDS011;3823;53.586;10.040;2023-04-15T19:26:30;24.90;;;18.33;;
7563;SDS011;3823;53.586;10.040;2023-04-15T19:28:56;28.80;;;17.63;;
7563;SDS011;3823;53.586;10.040;2023-04-15T19:31:22;22.90;;;17.33;;
7563;SDS011;3823;53.586;10.040;2023-04-15T19:33:49;22.17;;;15.70;;
7563;SDS011;3823;53.586;10.040;2023-04-15T19:36:16;22.25;;;16.83;;
7563;SDS011;3823;53.586;10.040;2023-04-15T19:38:42;27.52;;;18.02;;
7563;SDS011;3823;53.586;10.040;2023-04-15T19:41:08;24.10;;;16.08;;
7563;SDS011;3823;53.586;10.040;2023-04-15T19:43:35;25.65;;;16.88;;
7563;SDS011;3823;53.586;10.040;2023-04-15T19:46:06;21.25;;;16.02;;
7563;SDS011;3823;53.586;10.040;2023-04-15T19:48:50;25.90;;;17.52;;
7563;SDS011;3823;53.586;10.040;2023-04-15T19:51:32;19.23;;;15.57;;